sensor_id;sensor_type;location;lat;lon;timestamp;P1;durP1;ratioP1;P2;durP2;ratioP2
2860;SDS011;1438;50.922;6.704;2023-06-14T00:01:26;5.90;;;4.80;;
2860;SDS011;1438;50.922;6.704;2023-06-14T00:03:52;7.57;;;4.63;;
2860;SDS011;1438;50.922;6.704;2023-06-14T00:06:19;6.03;;;4.97;;
2860;SDS011;1438;50.922;6.704;2023-06-14T00:08:45;5.67;;;5.17;;
2860;SDS011;1438;50.922;6.704;2023-06-14T00:11:11;6.27;;;5.13;;
2860;SDS011;1438;50.922;6.704;2023-06-14T00:13:37;5.40;;;4.90;;
2860;SDS011;1438;50.922;6.704;2023-06-14T00:16:06;5.97;;;5.20;;
2860;SDS011;1438;50.922;6.704;2023-06-14T00:18:33;6.00;;;5.00;;
2860;SDS011;1438;50.922;6.704;2023-06-14T00:20:59;7.20;;;4.60;;
2860;SDS011;1438;50.922;6.704;2023-06-14T00:23:27;5.87;;;5.30;;
2860;SDS011;1438;50.922;6.704;2023-06-14T00:25:53;6.23;;;5.63;;
2860;SDS011;1438;50.922;6.704;2023-06-14T00:28:19;8.10;;;6.00;;
2860;SDS011;1438;50.922;6.704;2023-06-14T00:30:45;6.20;;;5.60;;
2860;SDS011;1438;50.922;6.704;2023-06-14T00:33:11;5.97;;;4.63;;
2860;SDS011;1438;50.922;6.704;2023-06-14T00:35:38;8.20;;;5.30;;
2860;SDS011;1438;50.922;6.704;2023-06-14T00:38:04;7.90;;;5.70;;
2860;SDS011;1438;50.922;6.704;2023-06-14T00:40:30;8.60;;;5.80;;
2860;SDS011;1438;50.922;6.704;2023-06-14T00:42:56;6.47;;;5.10;;
2860;SDS011;1438;50.922;6.704;2023-06-14T00:45:22;6.90;;;5.87;;
2860;SDS011;1438;50.922;6.704;2023-06-14T00:47:48;6.20;;;5.20;;
2860;SDS011;1438;50.922;6.704;2023-06-14T00:50:20;9.43;;;6.23;;
2860;SDS011;1438;50.922;6.704;2023-06-14T00:52:48;11.30;;;6.43;;
2860;SDS011;1438;50.922;6.704;2023-06-14T00:55:14;9.10;;;6.00;;
2860;SDS011;1438;50.922;6.704;2023-06-14T00:57:40;6.20;;;5.33;;
2860;SDS011;1438;50.922;6.704;2023-06-14T01:00:07;6.63;;;6.00;;
2860;SDS011;1438;50.922;6.704;2023-06-14T01:02:37;7.30;;;6.60;;
2860;SDS011;1438;50.922;6.704;2023-06-14T01:05:04;6.80;;;6.07;;
2860;SDS011;1438;50.922;6.704;2023-06-14T01:07:38;7.80;;;5.50;;
2860;SDS011;1438;50.922;6.704;2023-06-14T01:15:02;6.23;;;5.63;;
2860;SDS011;1438;50.922;6.704;2023-06-14T01:17:29;6.07;;;5.47;;
2860;SDS011;1438;50.922;6.704;2023-06-14T01:20:06;6.20;;;5.60;;
2860;SDS011;1438;50.922;6.704;2023-06-14T01:22:35;7.10;;;5.80;;
2860;SDS011;1438;50.922;6.704;2023-06-14T01:25:01;8.40;;;6.20;;
2860;SDS011;1438;50.922;6.704;2023-06-14T01:27:27;7.53;;;6.80;;
2860;SDS011;1438;50.922;6.704;2023-06-14T01:29:54;8.90;;;5.57;;
2860;SDS011;1438;50.922;6.704;2023-06-14T01:32:21;6.40;;;5.80;;
2860;SDS011;1438;50.922;6.704;2023-06-14T01:34:48;6.60;;;5.80;;
2860;SDS011;1438;50.922;6.704;2023-06-14T01:37:14;7.00;;;6.03;;
2860;SDS011;1438;50.922;6.704;2023-06-14T01:39:41;5.93;;;5.33;;
2860;SDS011;1438;50.922;6.704;2023-06-14T01:42:09;6.20;;;5.60;;
2860;SDS011;1438;50.922;6.704;2023-06-14T01:44:37;8.03;;;6.23;;
2860;SDS011;1438;50.922;6.704;2023-06-14T01:47:03;5.80;;;5.30;;
2860;SDS011;1438;50.922;6.704;2023-06-14T01:49:29;7.40;;;6.27;;
2860;SDS011;1438;50.922;6.704;2023-06-14T01:51:58;8.50;;;6.23;;
2860;SDS011;1438;50.922;6.704;2023-06-14T01:54:25;5.57;;;4.90;;
2860;SDS011;1438;50.922;6.704;2023-06-14T01:56:51;7.93;;;6.13;;
2860;SDS011;1438;50.922;6.704;2023-06-14T01:59:17;6.43;;;5.83;;
2860;SDS011;1438;50.922;6.704;2023-06-14T02:01:43;7.27;;;6.33;;
2860;SDS011;1438;50.922;6.704;2023-06-14T02:04:11;8.20;;;6.50;;
2860;SDS011;1438;50.922;6.704;2023-06-14T02:06:37;8.30;;;6.23;;
2860;SDS011;1438;50.922;6.704;2023-06-14T02:09:03;6.90;;;6.20;;
2860;SDS011;1438;50.922;6.704;2023-06-14T02:11:29;6.40;;;5.80;;
2860;SDS011;1438;50.922;6.704;2023-06-14T02:13:55;6.40;;;5.80;;
2860;SDS011;1438;50.922;6.704;2023-06-14T02:16:24;10.70;;;6.13;;
2860;SDS011;1438;50.922;6.704;2023-06-14T02:18:53;7.53;;;6.23;;
2860;SDS011;1438;50.922;6.704;2023-06-14T02:21:19;7.77;;;6.67;;
2860;SDS011;1438;50.922;6.704;2023-06-14T02:23:45;6.60;;;6.00;;
2860;SDS011;1438;50.922;6.704;2023-06-14T02:26:11;7.50;;;6.37;;
2860;SDS011;1438;50.922;6.704;2023-06-14T02:28:37;6.73;;;6.10;;
2860;SDS011;1438;50.922;6.704;2023-06-14T02:31:03;6.57;;;5.97;;
2860;SDS011;1438;50.922;6.704;2023-06-14T02:33:30;7.27;;;6.20;;
2860;SDS011;1438;50.922;6.704;2023-06-14T02:35:59;7.00;;;6.30;;
2860;SDS011;1438;50.922;6.704;2023-06-14T02:38:27;7.30;;;6.40;;
2860;SDS011;1438;50.922;6.704;2023-06-14T02:40:53;6.80;;;6.20;;
2860;SDS011;1438;50.922;6.704;2023-06-14T02:43:19;10.20;;;6.50;;
2860;SDS011;1438;50.922;6.704;2023-06-14T02:45:45;6.60;;;6.00;;
2860;SDS011;1438;50.922;6.704;2023-06-14T02:48:11;7.97;;;6.10;;
2860;SDS011;1438;50.922;6.704;2023-06-14T02:50:37;6.10;;;5.50;;
2860;SDS011;1438;50.922;6.704;2023-06-14T02:53:04;8.13;;;7.07;;
2860;SDS011;1438;50.922;6.704;2023-06-14T02:55:30;9.30;;;6.83;;
2860;SDS011;1438;50.922;6.704;2023-06-14T02:57:56;8.00;;;6.40;;
2860;SDS011;1438;50.922;6.704;2023-06-14T03:00:22;8.43;;;6.93;;
2860;SDS011;1438;50.922;6.704;2023-06-14T03:02:48;6.40;;;5.90;;
2860;SDS011;1438;50.922;6.704;2023-06-14T03:05:15;8.47;;;6.47;;
2860;SDS011;1438;50.922;6.704;2023-06-14T03:07:41;12.63;;;7.73;;
2860;SDS011;1438;50.922;6.704;2023-06-14T03:10:09;6.77;;;6.17;;
2860;SDS011;1438;50.922;6.704;2023-06-14T03:12:38;8.07;;;6.97;;
2860;SDS011;1438;50.922;6.704;2023-06-14T03:15:04;8.47;;;7.67;;
2860;SDS011;1438;50.922;6.704;2023-06-14T03:17:30;8.70;;;7.90;;
2860;SDS011;1438;50.922;6.704;2023-06-14T03:19:59;7.80;;;6.63;;
2860;SDS011;1438;50.922;6.704;2023-06-14T03:22:25;7.50;;;6.80;;
2860;SDS011;1438;50.922;6.704;2023-06-14T03:24:51;9.27;;;7.10;;
2860;SDS011;1438;50.922;6.704;2023-06-14T03:27:19;13.30;;;6.83;;
2860;SDS011;1438;50.922;6.704;2023-06-14T03:29:45;11.90;;;7.77;;
2860;SDS011;1438;50.922;6.704;2023-06-14T03:32:11;8.33;;;7.30;;
2860;SDS011;1438;50.922;6.704;2023-06-14T03:34:37;7.70;;;6.90;;
2860;SDS011;1438;50.922;6.704;2023-06-14T03:37:04;7.63;;;6.83;;
2860;SDS011;1438;50.922;6.704;2023-06-14T03:39:30;8.90;;;7.00;;
2860;SDS011;1438;50.922;6.704;2023-06-14T03:41:56;10.93;;;7.33;;
2860;SDS011;1438;50.922;6.704;2023-06-14T03:44:22;8.47;;;7.67;;
2860;SDS011;1438;50.922;6.704;2023-06-14T03:46:48;10.00;;;7.73;;
2860;SDS011;1438;50.922;6.704;2023-06-14T03:49:15;8.30;;;7.50;;
2860;SDS011;1438;50.922;6.704;2023-06-14T03:51:42;8.87;;;8.07;;
2860;SDS011;1438;50.922;6.704;2023-06-14T03:54:08;8.63;;;7.57;;
2860;SDS011;1438;50.922;6.704;2023-06-14T03:56:34;10.60;;;7.97;;
2860;SDS011;1438;50.922;6.704;2023-06-14T03:59:00;9.30;;;8.37;;
2860;SDS011;1438;50.922;6.704;2023-06-14T04:01:27;8.73;;;7.43;;
2860;SDS011;1438;50.922;6.704;2023-06-14T04:03:55;11.07;;;8.27;;
2860;SDS011;1438;50.922;6.704;2023-06-14T04:06:21;7.93;;;7.00;;
2860;SDS011;1438;50.922;6.704;2023-06-14T04:08:49;6.83;;;6.23;;
2860;SDS011;1438;50.922;6.704;2023-06-14T04:11:15;11.00;;;7.87;;
2860;SDS011;1438;50.922;6.704;2023-06-14T04:13:41;8.63;;;7.37;;
2860;SDS011;1438;50.922;6.704;2023-06-14T04:16:07;7.80;;;7.10;;
2860;SDS011;1438;50.922;6.704;2023-06-14T04:18:33;8.73;;;7.70;;
2860;SDS011;1438;50.922;6.704;2023-06-14T04:20:59;11.27;;;6.87;;
2860;SDS011;1438;50.922;6.704;2023-06-14T04:23:25;7.83;;;7.00;;
2860;SDS011;1438;50.922;6.704;2023-06-14T04:25:53;7.53;;;6.20;;
2860;SDS011;1438;50.922;6.704;2023-06-14T04:28:19;10.13;;;6.10;;
2860;SDS011;1438;50.922;6.704;2023-06-14T04:30:45;7.80;;;5.77;;
2860;SDS011;1438;50.922;6.704;2023-06-14T04:33:12;6.73;;;4.73;;
2860;SDS011;1438;50.922;6.704;2023-06-14T04:35:38;6.63;;;5.10;;
2860;SDS011;1438;50.922;6.704;2023-06-14T04:38:05;5.13;;;4.70;;
2860;SDS011;1438;50.922;6.704;2023-06-14T04:40:35;7.70;;;4.80;;
2860;SDS011;1438;50.922;6.704;2023-06-14T04:43:07;11.80;;;5.20;;
2860;SDS011;1438;50.922;6.704;2023-06-14T04:45:33;7.33;;;4.00;;
2860;SDS011;1438;50.922;6.704;2023-06-14T04:48:01;8.00;;;4.50;;
2860;SDS011;1438;50.922;6.704;2023-06-14T04:50:27;5.17;;;3.60;;
2860;SDS011;1438;50.922;6.704;2023-06-14T04:52:57;4.40;;;4.00;;
2860;SDS011;1438;50.922;6.704;2023-06-14T04:55:24;11.70;;;5.23;;
2860;SDS011;1438;50.922;6.704;2023-06-14T04:57:51;4.97;;;4.10;;
2860;SDS011;1438;50.922;6.704;2023-06-14T05:00:18;5.93;;;4.10;;
2860;SDS011;1438;50.922;6.704;2023-06-14T05:02:44;7.60;;;4.67;;
2860;SDS011;1438;50.922;6.704;2023-06-14T05:05:11;6.20;;;4.70;;
2860;SDS011;1438;50.922;6.704;2023-06-14T05:07:38;4.37;;;3.83;;
2860;SDS011;1438;50.922;6.704;2023-06-14T05:10:04;6.20;;;5.27;;
2860;SDS011;1438;50.922;6.704;2023-06-14T05:12:30;6.87;;;5.00;;
2860;SDS011;1438;50.922;6.704;2023-06-14T05:14:57;7.00;;;4.87;;
2860;SDS011;1438;50.922;6.704;2023-06-14T05:17:26;10.07;;;4.40;;
2860;SDS011;1438;50.922;6.704;2023-06-14T05:19:53;5.60;;;4.40;;
2860;SDS011;1438;50.922;6.704;2023-06-14T05:22:20;7.73;;;4.40;;
2860;SDS011;1438;50.922;6.704;2023-06-14T05:24:46;7.03;;;5.00;;
2860;SDS011;1438;50.922;6.704;2023-06-14T05:27:13;7.23;;;4.00;;
2860;SDS011;1438;50.922;6.704;2023-06-14T05:29:39;8.53;;;4.53;;
2860;SDS011;1438;50.922;6.704;2023-06-14T05:32:05;6.40;;;4.60;;
2860;SDS011;1438;50.922;6.704;2023-06-14T05:34:31;4.40;;;4.00;;
2860;SDS011;1438;50.922;6.704;2023-06-14T05:36:57;4.90;;;4.20;;
2860;SDS011;1438;50.922;6.704;2023-06-14T05:39:23;8.30;;;4.70;;
2860;SDS011;1438;50.922;6.704;2023-06-14T05:41:49;10.77;;;4.83;;
2860;SDS011;1438;50.922;6.704;2023-06-14T05:44:15;8.70;;;4.43;;
2860;SDS011;1438;50.922;6.704;2023-06-14T05:46:41;8.83;;;3.70;;
2860;SDS011;1438;50.922;6.704;2023-06-14T05:49:07;8.20;;;3.80;;
2860;SDS011;1438;50.922;6.704;2023-06-14T05:51:34;5.23;;;4.27;;
2860;SDS011;1438;50.922;6.704;2023-06-14T05:54:01;7.60;;;4.63;;
2860;SDS011;1438;50.922;6.704;2023-06-14T05:56:27;11.90;;;3.90;;
2860;SDS011;1438;50.922;6.704;2023-06-14T05:58:53;5.97;;;3.90;;
2860;SDS011;1438;50.922;6.704;2023-06-14T06:01:19;12.43;;;4.27;;
2860;SDS011;1438;50.922;6.704;2023-06-14T06:03:45;8.83;;;4.10;;
2860;SDS011;1438;50.922;6.704;2023-06-14T06:06:12;6.80;;;4.60;;
2860;SDS011;1438;50.922;6.704;2023-06-14T06:08:38;12.63;;;4.63;;
2860;SDS011;1438;50.922;6.704;2023-06-14T06:11:05;3.70;;;3.30;;
2860;SDS011;1438;50.922;6.704;2023-06-14T06:13:31;7.40;;;4.20;;
2860;SDS011;1438;50.922;6.704;2023-06-14T06:15:57;5.53;;;4.07;;
2860;SDS011;1438;50.922;6.704;2023-06-14T06:18:23;7.93;;;3.90;;
2860;SDS011;1438;50.922;6.704;2023-06-14T06:20:49;5.23;;;3.50;;
2860;SDS011;1438;50.922;6.704;2023-06-14T06:23:16;4.90;;;4.00;;
2860;SDS011;1438;50.922;6.704;2023-06-14T06:25:42;7.50;;;4.40;;
2860;SDS011;1438;50.922;6.704;2023-06-14T06:28:08;5.33;;;3.87;;
2860;SDS011;1438;50.922;6.704;2023-06-14T06:30:34;7.73;;;4.00;;
2860;SDS011;1438;50.922;6.704;2023-06-14T06:33:01;8.50;;;3.87;;
2860;SDS011;1438;50.922;6.704;2023-06-14T06:35:28;7.53;;;3.63;;
2860;SDS011;1438;50.922;6.704;2023-06-14T06:37:55;5.90;;;4.07;;
2860;SDS011;1438;50.922;6.704;2023-06-14T06:40:22;5.60;;;4.17;;
2860;SDS011;1438;50.922;6.704;2023-06-14T06:42:48;8.40;;;3.63;;
2860;SDS011;1438;50.922;6.704;2023-06-14T06:45:15;6.80;;;3.77;;
2860;SDS011;1438;50.922;6.704;2023-06-14T06:47:41;9.93;;;4.00;;
2860;SDS011;1438;50.922;6.704;2023-06-14T06:50:07;7.20;;;3.97;;
2860;SDS011;1438;50.922;6.704;2023-06-14T06:52:33;4.80;;;3.40;;
2860;SDS011;1438;50.922;6.704;2023-06-14T06:55:00;8.70;;;3.57;;
2860;SDS011;1438;50.922;6.704;2023-06-14T06:57:27;4.00;;;3.60;;
2860;SDS011;1438;50.922;6.704;2023-06-14T06:59:54;4.17;;;3.70;;
2860;SDS011;1438;50.922;6.704;2023-06-14T07:02:20;4.03;;;3.27;;
2860;SDS011;1438;50.922;6.704;2023-06-14T07:04:46;4.17;;;3.50;;
2860;SDS011;1438;50.922;6.704;2023-06-14T07:07:12;9.60;;;3.10;;
2860;SDS011;1438;50.922;6.704;2023-06-14T07:09:38;7.90;;;4.17;;
2860;SDS011;1438;50.922;6.704;2023-06-14T07:12:06;6.37;;;3.83;;
2860;SDS011;1438;50.922;6.704;2023-06-14T07:14:32;4.40;;;2.90;;
2860;SDS011;1438;50.922;6.704;2023-06-14T07:16:58;4.13;;;3.37;;
2860;SDS011;1438;50.922;6.704;2023-06-14T07:19:25;5.30;;;4.20;;
2860;SDS011;1438;50.922;6.704;2023-06-14T07:21:51;8.67;;;3.60;;
2860;SDS011;1438;50.922;6.704;2023-06-14T07:24:17;7.20;;;3.37;;
2860;SDS011;1438;50.922;6.704;2023-06-14T07:26:43;9.30;;;3.93;;
2860;SDS011;1438;50.922;6.704;2023-06-14T07:29:09;3.80;;;3.23;;
2860;SDS011;1438;50.922;6.704;2023-06-14T07:31:35;5.70;;;2.90;;
2860;SDS011;1438;50.922;6.704;2023-06-14T07:34:01;9.70;;;3.90;;
2860;SDS011;1438;50.922;6.704;2023-06-14T07:36:28;4.30;;;3.30;;
2860;SDS011;1438;50.922;6.704;2023-06-14T07:38:54;4.47;;;2.80;;
2860;SDS011;1438;50.922;6.704;2023-06-14T07:41:20;15.13;;;3.03;;
2860;SDS011;1438;50.922;6.704;2023-06-14T07:43:46;5.40;;;2.50;;
2860;SDS011;1438;50.922;6.704;2023-06-14T07:46:12;7.20;;;2.80;;
2860;SDS011;1438;50.922;6.704;2023-06-14T07:48:38;10.60;;;2.80;;
2860;SDS011;1438;50.922;6.704;2023-06-14T07:51:04;3.20;;;2.90;;
2860;SDS011;1438;50.922;6.704;2023-06-14T07:53:30;4.83;;;3.00;;
2860;SDS011;1438;50.922;6.704;2023-06-14T07:55:56;4.13;;;2.50;;
2860;SDS011;1438;50.922;6.704;2023-06-14T07:58:22;2.90;;;2.50;;
2860;SDS011;1438;50.922;6.704;2023-06-14T08:00:48;3.70;;;2.70;;
2860;SDS011;1438;50.922;6.704;2023-06-14T08:03:14;4.20;;;2.47;;
2860;SDS011;1438;50.922;6.704;2023-06-14T08:05:40;5.10;;;3.00;;
2860;SDS011;1438;50.922;6.704;2023-06-14T08:08:06;3.50;;;3.00;;
2860;SDS011;1438;50.922;6.704;2023-06-14T08:10:32;3.40;;;2.40;;
2860;SDS011;1438;50.922;6.704;2023-06-14T08:12:59;5.83;;;3.13;;
2860;SDS011;1438;50.922;6.704;2023-06-14T08:15:25;5.60;;;3.03;;
2860;SDS011;1438;50.922;6.704;2023-06-14T08:17:51;4.00;;;2.13;;
2860;SDS011;1438;50.922;6.704;2023-06-14T08:20:17;3.40;;;2.70;;
2860;SDS011;1438;50.922;6.704;2023-06-14T08:22:43;3.90;;;2.73;;
2860;SDS011;1438;50.922;6.704;2023-06-14T08:25:11;3.83;;;3.07;;
2860;SDS011;1438;50.922;6.704;2023-06-14T08:27:37;4.10;;;2.63;;
2860;SDS011;1438;50.922;6.704;2023-06-14T08:30:03;4.03;;;2.70;;
2860;SDS011;1438;50.922;6.704;2023-06-14T08:32:29;11.03;;;2.77;;
2860;SDS011;1438;50.922;6.704;2023-06-14T08:34:55;3.13;;;2.50;;
2860;SDS011;1438;50.922;6.704;2023-06-14T08:37:21;4.23;;;2.50;;
2860;SDS011;1438;50.922;6.704;2023-06-14T08:39:47;3.20;;;1.93;;
2860;SDS011;1438;50.922;6.704;2023-06-14T08:42:14;14.70;;;4.73;;
2860;SDS011;1438;50.922;6.704;2023-06-14T08:44:40;18.30;;;3.27;;
2860;SDS011;1438;50.922;6.704;2023-06-14T08:47:07;25.43;;;5.30;;
2860;SDS011;1438;50.922;6.704;2023-06-14T08:49:33;6.43;;;2.00;;
2860;SDS011;1438;50.922;6.704;2023-06-14T08:52:01;4.53;;;1.73;;
2860;SDS011;1438;50.922;6.704;2023-06-14T08:54:28;2.83;;;1.70;;
2860;SDS011;1438;50.922;6.704;2023-06-14T08:57:01;2.37;;;1.77;;
2860;SDS011;1438;50.922;6.704;2023-06-14T08:59:29;3.50;;;1.70;;
2860;SDS011;1438;50.922;6.704;2023-06-14T09:01:58;2.53;;;1.50;;
2860;SDS011;1438;50.922;6.704;2023-06-14T09:04:25;2.90;;;1.77;;
2860;SDS011;1438;50.922;6.704;2023-06-14T09:06:54;1.50;;;1.40;;
2860;SDS011;1438;50.922;6.704;2023-06-14T09:09:20;3.20;;;1.70;;
2860;SDS011;1438;50.922;6.704;2023-06-14T09:11:47;2.70;;;1.93;;
2860;SDS011;1438;50.922;6.704;2023-06-14T09:14:14;1.77;;;1.67;;
2860;SDS011;1438;50.922;6.704;2023-06-14T09:16:40;2.77;;;1.70;;
2860;SDS011;1438;50.922;6.704;2023-06-14T09:19:06;5.23;;;1.90;;
2860;SDS011;1438;50.922;6.704;2023-06-14T09:21:33;2.00;;;1.80;;
2860;SDS011;1438;50.922;6.704;2023-06-14T09:24:01;2.80;;;1.63;;
2860;SDS011;1438;50.922;6.704;2023-06-14T09:26:27;3.70;;;2.40;;
2860;SDS011;1438;50.922;6.704;2023-06-14T09:28:54;2.20;;;2.00;;
2860;SDS011;1438;50.922;6.704;2023-06-14T09:31:20;1.83;;;1.70;;
2860;SDS011;1438;50.922;6.704;2023-06-14T09:33:50;3.93;;;1.90;;
2860;SDS011;1438;50.922;6.704;2023-06-14T09:36:18;3.10;;;1.70;;
2860;SDS011;1438;50.922;6.704;2023-06-14T09:38:57;1.60;;;1.50;;
2860;SDS011;1438;50.922;6.704;2023-06-14T09:41:39;2.03;;;1.63;;
2860;SDS011;1438;50.922;6.704;2023-06-14T09:44:07;2.00;;;1.80;;
2860;SDS011;1438;50.922;6.704;2023-06-14T09:46:34;2.87;;;1.87;;
2860;SDS011;1438;50.922;6.704;2023-06-14T09:49:00;3.67;;;1.93;;
2860;SDS011;1438;50.922;6.704;2023-06-14T09:51:27;2.90;;;2.00;;
2860;SDS011;1438;50.922;6.704;2023-06-14T09:53:55;2.20;;;1.70;;
2860;SDS011;1438;50.922;6.704;2023-06-14T09:56:26;1.90;;;1.80;;
2860;SDS011;1438;50.922;6.704;2023-06-14T09:58:55;4.17;;;1.87;;
2860;SDS011;1438;50.922;6.704;2023-06-14T10:01:21;2.20;;;2.00;;
2860;SDS011;1438;50.922;6.704;2023-06-14T10:03:49;2.77;;;1.63;;
2860;SDS011;1438;50.922;6.704;2023-06-14T10:06:16;3.33;;;1.70;;
2860;SDS011;1438;50.922;6.704;2023-06-14T10:08:42;1.97;;;1.77;;
2860;SDS011;1438;50.922;6.704;2023-06-14T10:11:09;2.07;;;1.80;;
2860;SDS011;1438;50.922;6.704;2023-06-14T10:13:37;3.60;;;1.80;;
2860;SDS011;1438;50.922;6.704;2023-06-14T10:16:10;4.10;;;2.03;;
2860;SDS011;1438;50.922;6.704;2023-06-14T10:18:47;2.40;;;1.90;;
2860;SDS011;1438;50.922;6.704;2023-06-14T10:21:28;2.93;;;1.80;;
2860;SDS011;1438;50.922;6.704;2023-06-14T10:23:59;3.20;;;1.47;;
2860;SDS011;1438;50.922;6.704;2023-06-14T10:26:27;3.10;;;1.83;;
2860;SDS011;1438;50.922;6.704;2023-06-14T10:29:08;2.57;;;2.13;;
2860;SDS011;1438;50.922;6.704;2023-06-14T10:31:41;1.97;;;1.70;;
2860;SDS011;1438;50.922;6.704;2023-06-14T10:34:08;2.97;;;2.20;;
2860;SDS011;1438;50.922;6.704;2023-06-14T10:36:34;3.30;;;1.60;;
2860;SDS011;1438;50.922;6.704;2023-06-14T10:41:27;2.70;;;2.30;;
2860;SDS011;1438;50.922;6.704;2023-06-14T10:46:46;2.63;;;1.73;;
2860;SDS011;1438;50.922;6.704;2023-06-14T10:49:12;2.50;;;1.93;;
2860;SDS011;1438;50.922;6.704;2023-06-14T10:51:45;5.00;;;1.60;;
2860;SDS011;1438;50.922;6.704;2023-06-14T10:54:12;3.40;;;1.80;;
2860;SDS011;1438;50.922;6.704;2023-06-14T10:56:47;4.53;;;2.17;;
2860;SDS011;1438;50.922;6.704;2023-06-14T10:59:13;3.93;;;2.00;;
2860;SDS011;1438;50.922;6.704;2023-06-14T11:04:30;2.87;;;2.00;;
2860;SDS011;1438;50.922;6.704;2023-06-14T11:07:22;2.23;;;2.03;;
2860;SDS011;1438;50.922;6.704;2023-06-14T11:10:05;1.87;;;1.77;;
2860;SDS011;1438;50.922;6.704;2023-06-14T11:12:36;1.73;;;1.57;;
2860;SDS011;1438;50.922;6.704;2023-06-14T11:15:02;4.50;;;1.90;;
2860;SDS011;1438;50.922;6.704;2023-06-14T11:17:28;5.63;;;2.07;;
2860;SDS011;1438;50.922;6.704;2023-06-14T11:20:08;2.07;;;1.60;;
2860;SDS011;1438;50.922;6.704;2023-06-14T11:22:41;3.93;;;2.00;;
2860;SDS011;1438;50.922;6.704;2023-06-14T11:25:10;3.83;;;2.07;;
2860;SDS011;1438;50.922;6.704;2023-06-14T11:27:37;4.10;;;2.00;;
2860;SDS011;1438;50.922;6.704;2023-06-14T11:30:03;2.40;;;2.20;;
2860;SDS011;1438;50.922;6.704;2023-06-14T11:32:30;2.40;;;1.87;;
2860;SDS011;1438;50.922;6.704;2023-06-14T11:34:57;2.60;;;1.70;;
2860;SDS011;1438;50.922;6.704;2023-06-14T11:37:24;2.23;;;2.00;;
2860;SDS011;1438;50.922;6.704;2023-06-14T11:39:51;3.73;;;2.20;;
2860;SDS011;1438;50.922;6.704;2023-06-14T11:42:17;3.67;;;1.80;;
2860;SDS011;1438;50.922;6.704;2023-06-14T11:44:46;3.10;;;1.70;;
2860;SDS011;1438;50.922;6.704;2023-06-14T11:47:12;4.27;;;2.30;;
2860;SDS011;1438;50.922;6.704;2023-06-14T11:49:38;4.40;;;2.30;;
2860;SDS011;1438;50.922;6.704;2023-06-14T11:52:04;4.20;;;1.83;;
2860;SDS011;1438;50.922;6.704;2023-06-14T11:54:31;7.13;;;1.77;;
2860;SDS011;1438;50.922;6.704;2023-06-14T11:56:58;7.23;;;1.83;;
2860;SDS011;1438;50.922;6.704;2023-06-14T11:59:24;2.63;;;1.57;;
2860;SDS011;1438;50.922;6.704;2023-06-14T12:01:52;2.60;;;2.10;;
2860;SDS011;1438;50.922;6.704;2023-06-14T12:04:28;3.00;;;1.80;;
2860;SDS011;1438;50.922;6.704;2023-06-14T12:06:55;4.50;;;1.80;;
2860;SDS011;1438;50.922;6.704;2023-06-14T12:09:22;2.10;;;1.70;;
2860;SDS011;1438;50.922;6.704;2023-06-14T12:11:50;2.60;;;2.40;;
2860;SDS011;1438;50.922;6.704;2023-06-14T12:14:16;3.53;;;2.00;;
2860;SDS011;1438;50.922;6.704;2023-06-14T12:16:43;2.10;;;1.90;;
2860;SDS011;1438;50.922;6.704;2023-06-14T12:19:13;2.57;;;1.60;;
2860;SDS011;1438;50.922;6.704;2023-06-14T12:21:39;2.33;;;2.13;;
2860;SDS011;1438;50.922;6.704;2023-06-14T12:24:05;2.97;;;1.97;;
2860;SDS011;1438;50.922;6.704;2023-06-14T12:26:32;2.30;;;2.10;;
2860;SDS011;1438;50.922;6.704;2023-06-14T12:28:58;4.70;;;2.30;;
2860;SDS011;1438;50.922;6.704;2023-06-14T12:31:24;3.30;;;1.73;;
2860;SDS011;1438;50.922;6.704;2023-06-14T12:33:51;2.33;;;1.80;;
2860;SDS011;1438;50.922;6.704;2023-06-14T12:36:17;1.83;;;1.60;;
2860;SDS011;1438;50.922;6.704;2023-06-14T12:38:43;1.83;;;1.60;;
2860;SDS011;1438;50.922;6.704;2023-06-14T12:41:11;3.27;;;1.67;;
2860;SDS011;1438;50.922;6.704;2023-06-14T12:43:39;3.63;;;1.90;;
2860;SDS011;1438;50.922;6.704;2023-06-14T12:46:05;2.07;;;1.47;;
2860;SDS011;1438;50.922;6.704;2023-06-14T12:48:31;2.10;;;1.87;;
2860;SDS011;1438;50.922;6.704;2023-06-14T12:50:57;2.43;;;2.23;;
2860;SDS011;1438;50.922;6.704;2023-06-14T12:53:23;1.90;;;1.70;;
2860;SDS011;1438;50.922;6.704;2023-06-14T12:55:49;3.10;;;2.90;;
2860;SDS011;1438;50.922;6.704;2023-06-14T12:58:16;2.57;;;2.37;;
2860;SDS011;1438;50.922;6.704;2023-06-14T13:00:44;2.20;;;1.70;;
2860;SDS011;1438;50.922;6.704;2023-06-14T13:03:10;2.60;;;1.87;;
2860;SDS011;1438;50.922;6.704;2023-06-14T13:05:36;2.00;;;1.60;;
2860;SDS011;1438;50.922;6.704;2023-06-14T13:08:06;6.40;;;2.10;;
2860;SDS011;1438;50.922;6.704;2023-06-14T13:10:33;2.17;;;1.97;;
2860;SDS011;1438;50.922;6.704;2023-06-14T13:12:59;4.30;;;1.70;;
2860;SDS011;1438;50.922;6.704;2023-06-14T13:15:25;3.33;;;2.00;;
2860;SDS011;1438;50.922;6.704;2023-06-14T13:17:52;2.13;;;1.80;;
2860;SDS011;1438;50.922;6.704;2023-06-14T13:20:18;2.83;;;1.53;;
2860;SDS011;1438;50.922;6.704;2023-06-14T13:22:44;2.17;;;1.67;;
2860;SDS011;1438;50.922;6.704;2023-06-14T13:25:10;1.70;;;1.60;;
2860;SDS011;1438;50.922;6.704;2023-06-14T13:27:36;2.10;;;1.60;;
2860;SDS011;1438;50.922;6.704;2023-06-14T13:30:02;1.77;;;1.67;;
2860;SDS011;1438;50.922;6.704;2023-06-14T13:32:30;4.40;;;1.57;;
2860;SDS011;1438;50.922;6.704;2023-06-14T13:34:56;2.87;;;1.93;;
2860;SDS011;1438;50.922;6.704;2023-06-14T13:37:22;1.20;;;1.10;;
2860;SDS011;1438;50.922;6.704;2023-06-14T13:39:49;1.90;;;1.70;;
2860;SDS011;1438;50.922;6.704;2023-06-14T13:42:15;2.50;;;1.60;;
2860;SDS011;1438;50.922;6.704;2023-06-14T13:44:41;3.13;;;1.80;;
2860;SDS011;1438;50.922;6.704;2023-06-14T13:47:07;2.90;;;1.70;;
2860;SDS011;1438;50.922;6.704;2023-06-14T13:49:33;2.27;;;2.07;;
2860;SDS011;1438;50.922;6.704;2023-06-14T13:52:00;2.00;;;1.80;;
2860;SDS011;1438;50.922;6.704;2023-06-14T13:54:26;1.70;;;1.60;;
2860;SDS011;1438;50.922;6.704;2023-06-14T13:56:52;2.23;;;2.03;;
2860;SDS011;1438;50.922;6.704;2023-06-14T13:59:19;2.43;;;1.37;;
2860;SDS011;1438;50.922;6.704;2023-06-14T14:01:45;2.20;;;1.60;;
2860;SDS011;1438;50.922;6.704;2023-06-14T14:04:12;3.73;;;1.50;;
2860;SDS011;1438;50.922;6.704;2023-06-14T14:06:38;2.60;;;1.97;;
2860;SDS011;1438;50.922;6.704;2023-06-14T14:09:04;4.90;;;1.60;;
2860;SDS011;1438;50.922;6.704;2023-06-14T14:11:30;2.53;;;1.50;;
2860;SDS011;1438;50.922;6.704;2023-06-14T14:13:58;3.83;;;1.30;;
2860;SDS011;1438;50.922;6.704;2023-06-14T14:16:24;3.20;;;1.53;;
2860;SDS011;1438;50.922;6.704;2023-06-14T14:18:50;1.97;;;1.40;;
2860;SDS011;1438;50.922;6.704;2023-06-14T14:21:16;1.47;;;1.33;;
2860;SDS011;1438;50.922;6.704;2023-06-14T14:23:42;2.70;;;1.60;;
2860;SDS011;1438;50.922;6.704;2023-06-14T14:26:10;1.83;;;1.53;;
2860;SDS011;1438;50.922;6.704;2023-06-14T14:28:36;4.50;;;1.40;;
2860;SDS011;1438;50.922;6.704;2023-06-14T14:31:02;2.20;;;1.53;;
2860;SDS011;1438;50.922;6.704;2023-06-14T14:33:28;4.53;;;1.60;;
2860;SDS011;1438;50.922;6.704;2023-06-14T14:35:54;3.47;;;1.80;;
2860;SDS011;1438;50.922;6.704;2023-06-14T14:38:20;4.90;;;1.70;;
2860;SDS011;1438;50.922;6.704;2023-06-14T14:40:46;1.70;;;1.60;;
2860;SDS011;1438;50.922;6.704;2023-06-14T14:43:12;2.30;;;1.77;;
2860;SDS011;1438;50.922;6.704;2023-06-14T14:45:39;2.60;;;1.73;;
2860;SDS011;1438;50.922;6.704;2023-06-14T14:48:05;7.43;;;1.93;;
2860;SDS011;1438;50.922;6.704;2023-06-14T14:50:32;4.53;;;1.83;;
2860;SDS011;1438;50.922;6.704;2023-06-14T14:52:59;4.60;;;1.67;;
2860;SDS011;1438;50.922;6.704;2023-06-14T14:55:25;1.50;;;1.40;;
2860;SDS011;1438;50.922;6.704;2023-06-14T14:57:51;3.20;;;1.93;;
2860;SDS011;1438;50.922;6.704;2023-06-14T15:00:17;4.80;;;1.83;;
2860;SDS011;1438;50.922;6.704;2023-06-14T15:02:43;1.60;;;1.40;;
2860;SDS011;1438;50.922;6.704;2023-06-14T15:05:09;3.53;;;2.27;;
2860;SDS011;1438;50.922;6.704;2023-06-14T15:07:35;2.30;;;2.10;;
2860;SDS011;1438;50.922;6.704;2023-06-14T15:10:01;3.33;;;1.77;;
2860;SDS011;1438;50.922;6.704;2023-06-14T15:12:27;3.57;;;1.77;;
2860;SDS011;1438;50.922;6.704;2023-06-14T15:14:53;1.67;;;1.40;;
2860;SDS011;1438;50.922;6.704;2023-06-14T15:17:20;3.43;;;2.33;;
2860;SDS011;1438;50.922;6.704;2023-06-14T15:19:47;5.70;;;1.77;;
2860;SDS011;1438;50.922;6.704;2023-06-14T15:22:13;2.17;;;1.67;;
2860;SDS011;1438;50.922;6.704;2023-06-14T15:24:42;2.10;;;1.50;;
2860;SDS011;1438;50.922;6.704;2023-06-14T15:27:09;2.40;;;1.93;;